Time;durP1;ratioP1;P1;durP2;ratioP2;P2;SDS_P1;SDS_P2;PMS_P1;PMS_P2;Temp;Humidity;BMP_temperature;BMP_pressure;BME280_temperature;BME280_humidity;BME280_pressure;Samples;Min_cycle;Max_cycle;Signal;HPM_P1;HPM_P2
2021/12/30 00:00:50;;;;;;;1.00;1.00;;;;;;;8.12;100.00;96039.88;5032074;28;101948;-60
2021/12/30 00:03:19;;;;;;;0.80;0.80;;;;;;;8.16;100.00;96051.56;5028599;28;105728;-60
2021/12/30 00:05:46;;;;;;;3.80;3.00;;;;;;;8.18;100.00;96057.44;5029030;28;102068;-60
2021/12/30 00:08:15;;;;;;;2.40;2.03;;;;;;;8.19;100.00;96059.81;5028860;28;105172;-60
2021/12/30 00:10:42;;;;;;;2.40;2.20;;;;;;;8.19;100.00;96056.38;5028408;28;106009;-60
2021/12/30 00:13:10;;;;;;;3.00;2.70;;;;;;;8.22;100.00;96053.28;5028799;28;101924;-60
2021/12/30 00:15:37;;;;;;;2.00;1.20;;;;;;;8.24;100.00;96067.09;5028705;28;105170;-60
2021/12/30 00:18:07;;;;;;;0.83;0.83;;;;;;;8.33;100.00;96068.25;5028126;28;103957;-60
2021/12/30 00:20:36;;;;;;;1.50;1.40;;;;;;;8.39;100.00;96072.63;5030230;27;101644;-60
2021/12/30 00:23:06;;;;;;;1.10;1.10;;;;;;;8.41;100.00;96073.16;5065433;27;105559;-60
2021/12/30 00:25:39;;;;;;;1.20;1.10;;;;;;;8.40;100.00;96071.56;5032267;28;101898;-59
2021/12/30 00:28:06;;;;;;;0.80;0.80;;;;;;;8.43;100.00;96077.16;5032125;28;105309;-59
2021/12/30 00:30:33;;;;;;;0.60;0.60;;;;;;;8.52;100.00;96077.56;5031618;28;105500;-59
2021/12/30 00:33:00;;;;;;;0.60;0.60;;;;;;;8.58;100.00;96090.63;5032132;28;101932;-59
2021/12/30 00:35:27;;;;;;;0.70;0.70;;;;;;;8.83;100.00;96098.13;5032234;28;104158;-59
2021/12/30 00:37:56;;;;;;;0.70;0.70;;;;;;;8.93;100.00;96100.88;5031497;28;105350;-59
2021/12/30 00:40:23;;;;;;;0.60;0.60;;;;;;;9.07;100.00;96096.81;5032042;28;101845;-60
2021/12/30 00:42:50;;;;;;;0.73;0.73;;;;;;;9.50;100.00;96104.72;5033368;28;102329;-60
2021/12/30 00:45:17;;;;;;;0.70;0.70;;;;;;;9.77;100.00;96116.13;5034761;28;105515;-60
2021/12/30 00:47:45;;;;;;;0.50;0.50;;;;;;;10.28;100.00;96113.69;5032168;28;105655;-60
2021/12/30 00:50:12;;;;;;;0.53;0.53;;;;;;;10.92;100.00;96122.31;5031327;28;105177;-60
2021/12/30 00:52:39;;;;;;;0.30;0.30;;;;;;;11.28;100.00;96126.75;5032027;28;102042;-60
2021/12/30 00:55:09;;;;;;;0.93;0.30;;;;;;;11.40;100.00;96122.00;5065783;27;103731;-60
2021/12/30 00:57:37;;;;;;;0.40;0.40;;;;;;;11.50;100.00;96122.81;5031181;28;105919;-60
2021/12/30 01:00:05;;;;;;;0.40;0.40;;;;;;;11.61;100.00;96137.00;5031579;28;101949;-60
2021/12/30 01:02:33;;;;;;;0.40;0.40;;;;;;;11.63;100.00;96132.19;5031976;28;104858;-60
2021/12/30 01:04:59;;;;;;;0.30;0.30;;;;;;;11.63;100.00;96140.19;5034253;28;105010;-60
2021/12/30 01:07:26;;;;;;;0.20;0.20;;;;;;;11.57;100.00;96149.19;5031758;28;104799;-60
2021/12/30 01:09:53;;;;;;;0.20;0.20;;;;;;;11.55;100.00;96156.66;5031015;28;106031;-60
2021/12/30 01:12:23;;;;;;;0.20;0.20;;;;;;;11.54;100.00;96171.00;5031666;28;101960;-60
2021/12/30 01:14:51;;;;;;;0.30;0.30;;;;;;;11.53;100.00;96166.75;5031472;28;105536;-60
2021/12/30 01:17:24;;;;;;;0.30;0.30;;;;;;;11.55;100.00;96175.31;5030930;28;105460;-60
2021/12/30 01:19:51;;;;;;;0.40;0.40;;;;;;;11.56;100.00;96185.66;5031133;28;101756;-60
2021/12/30 01:22:21;;;;;;;0.30;0.30;;;;;;;11.57;100.00;96192.63;5031536;28;105581;-60
2021/12/30 01:24:48;;;;;;;0.63;0.40;;;;;;;11.59;100.00;96192.38;5030932;28;105189;-60
2021/12/30 01:27:16;;;;;;;0.30;0.30;;;;;;;11.63;100.00;96190.78;5034798;28;101933;-60
2021/12/30 01:29:45;;;;;;;0.30;0.30;;;;;;;11.62;100.00;96202.50;5030595;28;105258;-60
2021/12/30 01:32:12;;;;;;;0.40;0.40;;;;;;;11.63;100.00;96212.09;5031264;28;101952;-60
2021/12/30 01:34:39;;;;;;;0.30;0.30;;;;;;;11.62;100.00;96215.84;5031051;28;105472;-60
2021/12/30 01:37:06;;;;;;;0.30;0.30;;;;;;;11.67;100.00;96207.88;5029753;28;103900;-60
2021/12/30 01:39:39;;;;;;;0.30;0.30;;;;;;;11.66;100.00;96216.91;5031236;28;101933;-60
2021/12/30 01:42:10;;;;;;;0.30;0.30;;;;;;;11.59;100.00;96219.81;5031143;28;102534;-60
2021/12/30 01:44:36;;;;;;;0.23;0.23;;;;;;;11.57;100.00;96227.25;5030517;28;105175;-60
2021/12/30 01:47:06;;;;;;;0.20;0.20;;;;;;;11.56;100.00;96230.16;5031007;28;101938;-60
2021/12/30 01:49:33;;;;;;;0.30;0.30;;;;;;;11.62;100.00;96235.25;5033823;28;103999;-60
2021/12/30 01:52:01;;;;;;;0.20;0.20;;;;;;;11.60;100.00;96226.75;5031022;28;101856;-59
2021/12/30 01:54:29;;;;;;;0.20;0.20;;;;;;;11.54;100.00;96229.59;5030886;28;105186;-60
2021/12/30 01:57:00;;;;;;;0.23;0.23;;;;;;;11.57;100.00;96234.41;5030316;28;104948;-60
2021/12/30 01:59:28;;;;;;;0.30;0.30;;;;;;;11.63;100.00;96236.06;5030968;28;101745;-60
2021/12/30 02:01:57;;;;;;;0.40;0.40;;;;;;;11.71;100.00;96235.56;5030576;28;104202;-60
2021/12/30 02:04:27;;;;;;;0.30;0.30;;;;;;;11.70;100.00;96240.09;5030195;28;105278;-60
2021/12/30 02:06:55;;;;;;;0.40;0.40;;;;;;;11.85;100.00;96236.69;5030910;28;102095;-60
2021/12/30 02:09:22;;;;;;;0.33;0.33;;;;;;;11.86;100.00;96241.75;5030905;28;103782;-60
2021/12/30 02:11:50;;;;;;;0.40;0.40;;;;;;;11.88;100.00;96247.63;5033536;28;105173;-60
2021/12/30 02:14:17;;;;;;;0.40;0.30;;;;;;;11.88;100.00;96242.28;5030379;28;104997;-60
2021/12/30 02:16:45;;;;;;;0.37;0.37;;;;;;;11.84;100.00;96256.41;5029900;28;105772;-60
2021/12/30 02:19:13;;;;;;;0.40;0.20;;;;;;;11.83;100.00;96260.13;5030603;28;101842;-60
2021/12/30 02:21:41;;;;;;;0.30;0.30;;;;;;;11.81;100.00;96265.72;5032157;28;102887;-60
2021/12/30 02:24:08;;;;;;;0.40;0.40;;;;;;;11.79;100.00;96273.19;5029824;28;105125;-60
2021/12/30 02:26:36;;;;;;;0.30;0.30;;;;;;;11.71;100.00;96267.53;5030382;28;101974;-60
2021/12/30 02:29:04;;;;;;;0.30;0.30;;;;;;;11.64;100.00;96277.63;5030480;28;105291;-60
2021/12/30 02:31:32;;;;;;;0.20;0.20;;;;;;;11.64;100.00;96277.63;5029956;28;104984;-60
2021/12/30 02:34:00;;;;;;;0.30;0.30;;;;;;;11.60;100.00;96285.34;5033865;28;101851;-60
2021/12/30 02:36:31;;;;;;;0.30;0.30;;;;;;;11.57;100.00;96287.69;5029323;28;105825;-60
2021/12/30 02:39:02;;;;;;;0.30;0.30;;;;;;;11.53;100.00;96295.38;5030000;28;101912;-60
2021/12/30 02:41:33;;;;;;;0.50;0.50;;;;;;;11.51;100.00;96294.81;5030419;28;104508;-60
2021/12/30 02:44:01;;;;;;;0.57;0.50;;;;;;;11.49;100.00;96291.63;5029449;28;104115;-60
2021/12/30 02:46:29;;;;;;;0.30;0.30;;;;;;;11.48;100.00;96297.22;5030031;28;101849;-60
2021/12/30 02:48:56;;;;;;;0.30;0.30;;;;;;;11.44;100.00;96304.13;5029119;28;103966;-60
2021/12/30 02:51:23;;;;;;;0.60;0.60;;;;;;;11.45;100.00;96303.84;5029527;28;104972;-60
2021/12/30 02:53:51;;;;;;;0.50;0.50;;;;;;;11.43;100.00;96307.81;5063946;27;101929;-60
2021/12/30 02:56:20;;;;;;;0.50;0.40;;;;;;;11.40;100.00;96298.50;5032859;28;105349;-60
2021/12/30 02:58:47;;;;;;;0.30;0.30;;;;;;;11.38;100.00;96297.97;5063604;27;102099;-60
2021/12/30 03:01:17;;;;;;;0.43;0.30;;;;;;;11.34;100.00;96301.41;5029571;28;105092;-60
2021/12/30 03:03:44;;;;;;;0.30;0.30;;;;;;;11.28;100.00;96307.75;5029208;28;105771;-60
2021/12/30 03:06:15;;;;;;;1.03;0.43;;;;;;;11.08;100.00;96320.91;5031161;28;101832;-60
2021/12/30 03:08:42;;;;;;;0.60;0.60;;;;;;;10.90;100.00;96322.09;5030994;28;102593;-60
2021/12/30 03:11:10;;;;;;;1.00;0.60;;;;;;;10.78;100.00;96321.47;5029252;28;106408;-60
2021/12/30 03:13:42;;;;;;;0.60;0.60;;;;;;;10.66;100.00;96331.47;5031203;28;101905;-60
2021/12/30 03:16:12;;;;;;;0.63;0.63;;;;;;;10.56;100.00;96338.53;5032609;28;104924;-60
2021/12/30 03:18:40;;;;;;;0.70;0.70;;;;;;;10.48;100.00;96336.31;5029802;28;101904;-60
2021/12/30 03:21:09;;;;;;;0.63;0.63;;;;;;;10.48;100.00;96341.66;5029714;28;105005;-60
2021/12/30 03:23:36;;;;;;;0.73;0.73;;;;;;;10.40;100.00;96342.91;5029018;28;104963;-60
2021/12/30 03:26:04;;;;;;;0.93;0.93;;;;;;;10.41;100.00;96351.69;5029635;28;101930;-60
2021/12/30 03:28:32;;;;;;;1.03;0.93;;;;;;;10.36;100.00;96352.41;5029502;28;105568;-60
2021/12/30 03:31:01;;;;;;;1.23;1.10;;;;;;;10.36;100.00;96343.66;5028763;28;104425;-60
2021/12/30 03:33:30;;;;;;;1.20;1.10;;;;;;;10.35;100.00;96358.78;5063483;27;101943;-60
2021/12/30 03:35:59;;;;;;;1.13;1.13;;;;;;;10.35;100.00;96364.09;5029561;28;104028;-60
2021/12/30 03:38:26;;;;;;;3.07;1.30;;;;;;;10.36;100.00;96364.91;5031925;28;105098;-60
2021/12/30 03:40:53;;;;;;;1.10;1.10;;;;;;;10.34;100.00;96373.13;5029313;28;103694;-60
2021/12/30 03:43:20;;;;;;;1.00;1.00;;;;;;;10.35;100.00;96384.59;5028643;28;103783;-60
2021/12/30 03:45:47;;;;;;;1.10;1.00;;;;;;;10.37;100.00;96385.13;5029002;28;102312;-60
2021/12/30 03:48:16;;;;;;;1.27;1.17;;;;;;;10.34;100.00;96410.34;5030581;28;102814;-60
2021/12/30 03:50:44;;;;;;;0.90;0.90;;;;;;;10.29;100.00;96404.16;5028688;28;105059;-60
2021/12/30 03:53:15;;;;;;;1.37;1.00;;;;;;;10.30;100.00;96406.56;5029130;28;101924;-60
2021/12/30 03:55:44;;;;;;;0.90;0.90;;;;;;;10.30;100.00;96417.19;5029294;28;104134;-60
2021/12/30 03:58:11;;;;;;;1.10;1.10;;;;;;;10.30;100.00;96419.06;5027836;28;105846;-60
2021/12/30 04:00:39;;;;;;;1.43;1.33;;;;;;;10.25;100.00;96411.81;5033274;28;101820;-59
2021/12/30 04:03:07;;;;;;;1.20;1.20;;;;;;;10.26;100.00;96418.72;5028391;28;105339;-60
2021/12/30 04:05:35;;;;;;;0.90;0.90;;;;;;;10.21;100.00;96420.53;5029046;28;101991;-60
2021/12/30 04:08:01;;;;;;;1.00;0.90;;;;;;;10.20;100.00;96418.94;5028838;28;105193;-60
2021/12/30 04:10:29;;;;;;;0.80;0.80;;;;;;;10.23;100.00;96418.44;5028416;28;104993;-60
2021/12/30 04:12:56;;;;;;;1.00;0.90;;;;;;;10.19;100.00;96417.34;5028799;28;101759;-60
2021/12/30 04:15:23;;;;;;;1.13;1.10;;;;;;;10.16;100.00;96423.13;5028885;28;102861;-60
2021/12/30 04:17:51;;;;;;;1.40;1.40;;;;;;;10.18;100.00;96434.31;5028179;28;105514;-60
2021/12/30 04:20:19;;;;;;;1.30;1.20;;;;;;;10.19;100.00;96436.72;5028710;28;101823;-60
2021/12/30 04:22:48;;;;;;;1.20;1.20;;;;;;;10.18;100.00;96440.44;5031856;28;103584;-60
2021/12/30 04:25:17;;;;;;;0.90;0.90;;;;;;;10.26;100.00;96452.50;5028623;28;101974;-60
2021/12/30 04:27:45;;;;;;;0.70;0.70;;;;;;;10.37;100.00;96456.91;5029956;28;102743;-60
2021/12/30 04:30:14;;;;;;;1.10;1.10;;;;;;;10.61;100.00;96458.25;5061925;27;105339;-60
2021/12/30 04:32:42;;;;;;;1.03;0.70;;;;;;;10.85;100.00;96475.56;5028884;28;101945;-60
2021/12/30 04:35:09;;;;;;;0.70;0.70;;;;;;;10.89;100.00;96492.59;5030063;28;102564;-60
2021/12/30 04:37:37;;;;;;;0.57;0.53;;;;;;;11.27;100.00;96501.28;5027805;28;105219;-60
2021/12/30 04:40:09;;;;;;;0.50;0.50;;;;;;;11.37;100.00;96505.88;5028705;28;102110;-60
2021/12/30 04:42:36;;;;;;;0.37;0.37;;;;;;;11.48;100.00;96505.72;5028472;28;104841;-60
2021/12/30 04:45:03;;;;;;;0.30;0.30;;;;;;;11.71;100.00;96499.28;5031404;28;105119;-60
2021/12/30 04:47:31;;;;;;;0.30;0.30;;;;;;;11.89;100.00;96506.91;5028322;28;105019;-60
2021/12/30 04:49:58;;;;;;;1.07;0.40;;;;;;;11.97;100.00;96507.22;5027912;28;105093;-60
2021/12/30 04:52:25;;;;;;;0.30;0.30;;;;;;;12.04;100.00;96512.34;5028140;28;101930;-60
2021/12/30 04:54:53;;;;;;;0.30;0.30;;;;;;;11.95;100.00;96505.88;5028432;28;105109;-60
2021/12/30 04:57:21;;;;;;;0.40;0.40;;;;;;;11.93;100.00;96516.78;5027737;28;105158;-60
2021/12/30 04:59:48;;;;;;;0.30;0.30;;;;;;;12.04;100.00;96523.00;5028161;28;102080;-60
2021/12/30 05:02:15;;;;;;;0.30;0.30;;;;;;;11.98;100.00;96524.81;5029611;28;102881;-60
2021/12/30 05:04:42;;;;;;;0.30;0.30;;;;;;;12.00;100.00;96530.69;5027512;28;106772;-59
2021/12/30 05:07:09;;;;;;;0.30;0.30;;;;;;;11.99;100.00;96553.06;5031688;28;101798;-60
2021/12/30 05:09:37;;;;;;;0.30;0.30;;;;;;;11.99;100.00;96544.28;5028992;27;103091;-60
2021/12/30 05:12:05;;;;;;;0.30;0.30;;;;;;;11.92;100.00;96555.16;5030422;28;101964;-60
2021/12/30 05:14:33;;;;;;;0.33;0.30;;;;;;;11.94;100.00;96541.59;5031686;28;103637;-60
2021/12/30 05:17:03;;;;;;;0.40;0.40;;;;;;;12.05;100.00;96549.38;5030854;28;105084;-60
2021/12/30 05:19:31;;;;;;;0.33;0.33;;;;;;;11.98;100.00;96551.47;5031449;28;101845;-60
2021/12/30 05:21:58;;;;;;;0.30;0.30;;;;;;;12.00;100.00;96556.56;5065136;27;105114;-60
2021/12/30 05:24:25;;;;;;;0.40;0.40;;;;;;;12.02;100.00;96562.44;5032383;28;102776;-60
2021/12/30 05:26:52;;;;;;;0.47;0.47;;;;;;;12.02;100.00;96562.44;5034859;28;102158;-60
2021/12/30 05:29:18;;;;;;;0.40;0.40;;;;;;;11.95;100.00;96570.63;5031055;28;103830;-60
2021/12/30 05:31:47;;;;;;;0.77;0.50;;;;;;;11.93;100.00;96572.75;5031415;28;101974;-60
2021/12/30 05:34:14;;;;;;;0.30;0.30;;;;;;;11.93;100.00;96570.09;5031085;28;105206;-60
2021/12/30 05:36:40;;;;;;;0.33;0.33;;;;;;;11.89;100.00;96573.53;5030577;28;104990;-60
2021/12/30 05:39:08;;;;;;;0.40;0.40;;;;;;;11.83;100.00;96574.53;5032462;28;101817;-60
2021/12/30 05:41:35;;;;;;;0.40;0.40;;;;;;;11.78;100.00;96572.63;5031128;28;105572;-60
2021/12/30 05:44:17;;;;;;;0.40;0.40;;;;;;;11.73;100.00;96582.44;5030452;28;104203;-60
2021/12/30 05:46:44;;;;;;;0.40;0.40;;;;;;;11.68;100.00;96582.38;4973234;28;102147;-60
2021/12/30 05:49:13;;;;;;;0.30;0.30;;;;;;;11.66;100.00;96590.63;5009369;28;105281;-60
2021/12/30 05:51:41;;;;;;;0.30;0.30;;;;;;;11.64;100.00;96589.25;4973391;28;101948;-60
2021/12/30 05:54:09;;;;;;;0.30;0.30;;;;;;;11.62;100.00;96592.16;4973183;28;105265;-60
2021/12/30 05:56:35;;;;;;;0.90;0.50;;;;;;;11.62;100.00;96591.38;4972378;28;105502;-60
2021/12/30 05:59:02;;;;;;;0.50;0.50;;;;;;;11.63;100.00;96603.66;4973033;28;102250;-60
2021/12/30 06:01:29;;;;;;;0.40;0.40;;;;;;;11.58;100.00;96606.22;4972640;28;105183;-60
2021/12/30 06:03:56;;;;;;;0.50;0.50;;;;;;;11.50;100.00;96617.34;4989266;28;102803;-60
2021/12/30 06:06:26;;;;;;;0.50;0.50;;;;;;;11.41;100.00;96621.50;4972689;28;101936;-59
2021/12/30 06:08:55;;;;;;;0.50;0.50;;;;;;;11.37;100.00;96618.53;4973007;28;104892;-60
2021/12/30 06:11:22;;;;;;;0.57;0.57;;;;;;;11.32;100.00;96607.00;4992716;28;102835;-60
2021/12/30 06:13:49;;;;;;;1.90;0.80;;;;;;;11.24;100.00;96623.44;4972822;28;103691;-60
2021/12/30 06:16:16;;;;;;;0.93;0.50;;;;;;;11.18;100.00;96619.88;4972507;28;104216;-60
2021/12/30 06:18:44;;;;;;;0.80;0.70;;;;;;;11.10;100.00;96617.66;4972732;28;102495;-59
2021/12/30 06:21:11;;;;;;;0.60;0.60;;;;;;;11.03;100.00;96622.38;4972394;28;104918;-60
2021/12/30 06:23:39;;;;;;;0.70;0.70;;;;;;;10.93;100.00;96622.25;5003271;28;103494;-60
2021/12/30 06:26:06;;;;;;;0.67;0.67;;;;;;;10.97;100.00;96623.34;5030482;28;101908;-60
2021/12/30 06:28:34;;;;;;;0.53;0.53;;;;;;;10.89;100.00;96622.97;5030472;28;104965;-60
2021/12/30 06:31:01;;;;;;;0.50;0.50;;;;;;;10.79;100.00;96628.97;5029704;28;105672;-60
2021/12/30 06:33:27;;;;;;;0.50;0.50;;;;;;;10.77;100.00;96619.63;5034032;28;102001;-60
2021/12/30 06:35:54;;;;;;;1.43;0.80;;;;;;;10.74;100.00;96628.88;5029720;28;104992;-60
2021/12/30 06:38:21;;;;;;;4.07;2.90;;;;;;;10.70;100.00;96633.13;5030049;28;101779;-60
2021/12/30 06:40:50;;;;;;;2.83;2.27;;;;;;;10.70;100.00;96648.25;5030239;28;104133;-60
2021/12/30 06:43:17;;;;;;;1.47;1.17;;;;;;;10.70;100.00;96643.75;5063410;27;104032;-60
2021/12/30 06:45:44;;;;;;;11.77;9.10;;;;;;;10.70;100.00;96648.25;5030283;28;101950;-60
2021/12/30 06:48:14;;;;;;;4.30;3.90;;;;;;;10.70;100.00;96656.22;5029525;28;104048;-60
2021/12/30 06:50:41;;;;;;;4.90;4.40;;;;;;;10.63;100.00;96653.72;5009224;28;105656;-60
2021/12/30 06:53:08;;;;;;;1.80;1.70;;;;;;;10.62;100.00;96656.63;5009790;28;101968;-60
2021/12/30 06:55:35;;;;;;;2.13;2.00;;;;;;;10.58;100.00;96660.84;5012691;28;104941;-60
2021/12/30 06:58:05;;;;;;;0.70;0.70;;;;;;;10.50;100.00;96669.22;5009784;28;102118;-60
2021/12/30 07:00:32;;;;;;;2.40;1.70;;;;;;;10.50;100.00;96680.66;5010598;28;102367;-60
2021/12/30 07:02:59;;;;;;;3.80;3.50;;;;;;;10.39;100.00;96686.88;5009167;28;103905;-60
2021/12/30 07:05:26;;;;;;;2.30;2.00;;;;;;;10.25;100.00;96677.59;5009758;28;102003;-60
2021/12/30 07:07:53;;;;;;;2.10;1.90;;;;;;;10.12;100.00;96683.22;5043115;27;105788;-60
2021/12/30 07:10:20;;;;;;;1.23;1.13;;;;;;;9.97;100.00;96690.13;5009135;28;105458;-60
2021/12/30 07:12:47;;;;;;;3.37;2.63;;;;;;;9.91;100.00;96697.16;5011077;28;101816;-60
2021/12/30 07:15:16;;;;;;;2.33;2.20;;;;;;;9.84;100.00;96701.00;5009452;28;105670;-60
2021/12/30 07:17:43;;;;;;;2.87;2.67;;;;;;;9.81;100.00;96704.16;5012267;28;101927;-60
2021/12/30 07:20:12;;;;;;;3.30;3.00;;;;;;;9.73;100.00;96696.56;5009424;28;105251;-60
2021/12/30 07:22:40;;;;;;;2.23;2.13;;;;;;;9.65;100.00;96695.09;5008899;28;105448;-59
2021/12/30 07:25:09;;;;;;;1.97;1.87;;;;;;;9.55;100.00;96707.38;5009539;28;102036;-61
2021/12/30 07:27:37;;;;;;;1.40;1.30;;;;;;;9.41;100.00;96712.13;5009518;28;105373;-61
2021/12/30 07:30:05;;;;;;;2.70;1.50;;;;;;;9.31;100.00;96711.94;5010215;28;103215;-61
2021/12/30 07:32:34;;;;;;;1.50;1.40;;;;;;;9.24;100.00;96713.09;5009309;28;101919;-61
2021/12/30 07:35:00;;;;;;;1.80;1.70;;;;;;;9.17;100.00;96717.72;5008406;28;104887;-61
2021/12/30 07:37:27;;;;;;;1.97;1.87;;;;;;;9.22;100.00;96709.88;5011927;28;104133;-61
2021/12/30 07:39:54;;;;;;;1.60;1.60;;;;;;;9.14;100.00;96719.00;5009298;28;103631;-61
2021/12/30 07:42:21;;;;;;;1.70;1.60;;;;;;;9.12;100.00;96726.41;5008487;28;105105;-61
2021/12/30 07:44:48;;;;;;;2.40;2.20;;;;;;;9.05;100.00;96727.56;5009126;28;101833;-61
2021/12/30 07:47:15;;;;;;;3.17;2.87;;;;;;;9.04;100.00;96725.91;5009159;28;104758;-61
2021/12/30 07:49:44;;;;;;;4.20;3.90;;;;;;;9.02;100.00;96722.69;5009773;28;103117;-61
2021/12/30 07:52:10;;;;;;;4.70;4.30;;;;;;;8.96;100.00;96724.44;5009155;28;101941;-61
2021/12/30 07:54:38;;;;;;;4.00;3.17;;;;;;;8.88;100.00;96722.13;5008841;28;105198;-61
2021/12/30 07:57:05;;;;;;;2.00;1.90;;;;;;;8.84;100.00;96720.19;5009724;28;101799;-61
2021/12/30 07:59:32;;;;;;;2.43;2.23;;;;;;;8.84;100.00;96720.19;4995639;28;102122;-61
2021/12/30 08:01:59;;;;;;;3.50;3.20;;;;;;;8.84;100.00;96723.63;5008184;28;105739;-61
2021/12/30 08:04:26;;;;;;;4.50;4.10;;;;;;;8.86;100.00;96726.06;5010017;28;102104;-61
2021/12/30 08:06:54;;;;;;;2.87;2.60;;;;;;;8.82;100.00;96716.94;5018219;28;104693;-61
2021/12/30 08:09:22;;;;;;;3.70;3.40;;;;;;;8.87;100.00;96722.34;5027893;28;104662;-61
2021/12/30 08:11:49;;;;;;;5.20;4.20;;;;;;;8.85;100.00;96717.31;5022881;28;101844;-61
2021/12/30 08:14:16;;;;;;;2.37;2.00;;;;;;;8.94;100.00;96720.41;5029876;28;102515;-61
2021/12/30 08:16:43;;;;;;;2.77;2.50;;;;;;;8.93;100.00;96716.13;5028039;28;104178;-62
2021/12/30 08:19:13;;;;;;;4.00;3.27;;;;;;;8.93;100.00;96718.78;5026477;28;102380;-63
2021/12/30 08:21:42;;;;;;;2.30;2.10;;;;;;;8.99;100.00;96715.22;5028120;28;105285;-63
2021/12/30 08:24:11;;;;;;;3.20;2.90;;;;;;;8.99;100.00;96723.19;5027561;28;102028;-63
2021/12/30 08:26:38;;;;;;;2.77;2.27;;;;;;;9.02;100.00;96733.31;5028194;28;104021;-62
2021/12/30 08:29:59;;;;;;;2.90;2.70;;;;;;;8.98;100.00;96742.75;5028215;28;103751;-62
2021/12/30 08:32:26;;;;;;;2.30;2.20;;;;;;;8.98;100.00;96740.13;5027790;28;101789;-63
2021/12/30 08:34:54;;;;;;;3.00;2.80;;;;;;;8.98;100.00;96748.88;5028186;28;104841;-63
2021/12/30 08:37:21;;;;;;;2.70;2.50;;;;;;;8.98;100.00;96742.75;5027826;28;105229;-63
2021/12/30 08:39:49;;;;;;;2.43;2.23;;;;;;;8.93;100.00;96732.84;5028962;28;101847;-63
2021/12/30 08:42:22;;;;;;;2.00;1.90;;;;;;;8.91;100.00;96739.44;5028672;28;104935;-63
2021/12/30 08:44:50;;;;;;;2.17;2.00;;;;;;;8.92;100.00;96741.03;5030247;27;103155;-63
2021/12/30 08:47:17;;;;;;;2.17;2.07;;;;;;;8.89;100.00;96741.53;5063815;27;104821;-63
2021/12/30 08:49:46;;;;;;;2.10;2.00;;;;;;;8.93;100.00;96746.13;5031224;28;105035;-63
2021/12/30 08:52:14;;;;;;;2.80;2.60;;;;;;;8.91;100.00;96742.09;5031840;28;101925;-63
2021/12/30 08:54:42;;;;;;;2.87;2.40;;;;;;;8.92;100.00;96743.69;5031675;28;105283;-63
2021/12/30 08:57:11;;;;;;;2.73;2.60;;;;;;;8.97;100.00;96741.97;5029975;28;104084;-63
2021/12/30 08:59:38;;;;;;;3.00;2.80;;;;;;;8.93;100.00;96735.50;5031676;28;101986;-63
2021/12/30 09:02:07;;;;;;;4.27;3.87;;;;;;;8.95;100.00;96745.91;5031811;28;103682;-63
2021/12/30 09:04:34;;;;;;;4.60;4.20;;;;;;;8.92;100.00;96744.50;5030993;28;105240;-63
2021/12/30 09:07:02;;;;;;;5.60;4.70;;;;;;;8.99;100.00;96742.53;5034807;28;101953;-62
2021/12/30 09:09:29;;;;;;;6.63;5.43;;;;;;;9.01;100.00;96744.97;5027386;28;103868;-62
2021/12/30 09:11:56;;;;;;;6.70;4.53;;;;;;;8.99;100.00;96729.28;5031248;28;101996;-62
2021/12/30 09:14:41;;;;;;;7.07;5.53;;;;;;;8.96;100.00;96739.53;5031145;28;105420;-62
2021/12/30 09:17:08;;;;;;;3.60;3.30;;;;;;;8.98;100.00;96742.75;4949946;28;102844;-62
2021/12/30 09:19:36;;;;;;;4.40;2.47;;;;;;;9.02;100.00;96749.22;4933945;28;102202;-62
2021/12/30 09:22:03;;;;;;;3.13;2.87;;;;;;;8.95;100.00;96744.03;4934580;28;105613;-63
2021/12/30 09:24:30;;;;;;;7.33;4.80;;;;;;;8.84;100.00;96750.16;4950843;28;101818;-61
2021/12/30 09:26:57;;;;;;;3.40;3.10;;;;;;;8.80;100.00;96746.34;4954612;28;101929;-60
2021/12/30 09:29:43;;;;;;;4.63;3.30;;;;;;;8.77;100.00;96756.63;4949649;28;102718;-60
2021/12/30 09:32:10;;;;;;;2.87;2.67;;;;;;;8.78;100.00;96763.53;4933205;28;102235;-61
2021/12/30 09:34:38;;;;;;;3.33;3.13;;;;;;;8.80;100.00;96762.28;4943859;28;104925;-61
2021/12/30 09:37:09;;;;;;;3.40;3.20;;;;;;;8.78;100.00;96759.03;4952657;28;104374;-61
2021/12/30 09:39:37;;;;;;;3.20;3.00;;;;;;;8.75;100.00;96758.69;4950451;28;102616;-62
2021/12/30 09:42:05;;;;;;;4.93;3.87;;;;;;;8.75;100.00;96764.81;4950198;28;103830;-63
2021/12/30 09:44:32;;;;;;;4.87;4.37;;;;;;;8.75;100.00;96763.97;4952365;28;103898;-63
2021/12/30 09:47:00;;;;;;;3.60;3.30;;;;;;;8.73;100.00;96766.06;4953350;28;101901;-63
2021/12/30 09:49:29;;;;;;;4.30;3.90;;;;;;;8.79;100.00;96773.09;4956075;28;104865;-63
2021/12/30 09:51:56;;;;;;;2.80;2.60;;;;;;;8.78;100.00;96763.53;4953608;28;102081;-63
2021/12/30 09:54:24;;;;;;;3.83;3.20;;;;;;;8.79;100.00;96757.19;4990733;28;103043;-63
2021/12/30 09:56:52;;;;;;;12.27;7.20;;;;;;;8.88;100.00;96755.81;5008751;28;105010;-63
2021/12/30 09:59:20;;;;;;;12.10;8.67;;;;;;;8.89;100.00;96750.25;5009169;28;103605;-63
2021/12/30 10:01:47;;;;;;;3.93;3.53;;;;;;;8.97;100.00;96754.41;5013319;28;104885;-63
2021/12/30 10:04:16;;;;;;;2.93;2.63;;;;;;;9.01;100.00;96758.22;5030298;28;105848;-63
2021/12/30 10:06:44;;;;;;;2.30;2.20;;;;;;;9.06;100.00;96753.84;5030386;28;102021;-63
2021/12/30 10:09:14;;;;;;;2.73;2.53;;;;;;;9.11;100.00;96740.69;5030637;28;102887;-63
2021/12/30 10:11:49;;;;;;;2.93;2.67;;;;;;;9.19;100.00;96736.88;5032609;28;105153;-63
2021/12/30 10:14:27;;;;;;;3.33;2.70;;;;;;;9.25;100.00;96739.41;5030684;28;105074;-63
2021/12/30 10:17:16;;;;;;;2.77;2.57;;;;;;;9.31;100.00;96732.34;5031601;28;103158;-63
2021/12/30 10:19:45;;;;;;;2.20;2.00;;;;;;;9.37;100.00;96747.34;5028652;28;102092;-63
2021/12/30 10:22:13;;;;;;;2.03;1.67;;;;;;;9.42;100.00;96739.47;5028812;28;104772;-63
2021/12/30 10:24:40;;;;;;;2.27;1.90;;;;;;;9.46;100.00;96736.13;5029696;28;105288;-63
2021/12/30 10:27:07;;;;;;;1.60;1.50;;;;;;;9.50;100.00;96731.97;5030238;28;102223;-62
2021/12/30 10:29:42;;;;;;;13.47;8.43;;;;;;;9.53;100.00;96730.69;5030518;28;102650;-63
2021/12/30 10:32:16;;;;;;;6.13;4.83;;;;;;;9.57;100.00;96727.34;5027457;28;104086;-63
2021/12/30 10:35:07;;;;;;;4.53;3.80;;;;;;;9.66;100.00;96725.91;5032890;28;102149;-63
2021/12/30 10:37:35;;;;;;;3.23;2.83;;;;;;;9.72;100.00;96719.66;5029673;28;105141;-63
2021/12/30 10:40:03;;;;;;;2.17;2.07;;;;;;;9.76;100.00;96720.00;5030101;28;101984;-63
2021/12/30 10:42:32;;;;;;;3.33;3.03;;;;;;;9.80;100.00;96719.28;5028560;28;105243;-63
2021/12/30 10:45:03;;;;;;;1.60;1.50;;;;;;;9.80;100.00;96721.94;5028827;28;105280;-63
2021/12/30 10:47:33;;;;;;;2.40;2.30;;;;;;;9.88;100.00;96723.41;5030230;28;102743;-63
2021/12/30 10:50:03;;;;;;;2.90;1.97;;;;;;;9.92;100.00;96725.34;5030091;28;105171;-63
2021/12/30 10:52:32;;;;;;;1.87;1.77;;;;;;;10.02;100.00;96716.75;5027520;28;105882;-63
2021/12/30 10:55:00;;;;;;;1.90;1.80;;;;;;;10.02;100.00;96712.25;5027671;28;102344;-63
2021/12/30 10:57:29;;;;;;;2.30;2.10;;;;;;;10.00;100.00;96724.16;5032206;28;105720;-63
2021/12/30 10:59:58;;;;;;;1.70;1.60;;;;;;;10.02;100.00;96725.53;5031016;28;102463;-63
2021/12/30 11:02:27;;;;;;;2.50;2.03;;;;;;;10.03;100.00;96721.03;5029352;28;104476;-63
2021/12/30 11:04:56;;;;;;;1.80;1.70;;;;;;;10.13;100.00;96714.06;5027296;28;104220;-63
2021/12/30 11:07:53;;;;;;;1.97;1.87;;;;;;;10.12;100.00;96720.44;5029226;28;102408;-63
2021/12/30 11:10:30;;;;;;;4.00;3.70;;;;;;;10.15;100.00;96713.84;5029155;28;105317;-63
2021/12/30 11:13:11;;;;;;;2.70;2.50;;;;;;;10.16;100.00;96710.13;5029217;28;105682;-63
2021/12/30 11:15:38;;;;;;;2.27;2.17;;;;;;;10.19;100.00;96720.28;5029456;28;102721;-63
2021/12/30 11:18:10;;;;;;;1.93;1.77;;;;;;;10.24;100.00;96717.72;5029122;28;105894;-63
2021/12/30 11:20:40;;;;;;;2.17;1.80;;;;;;;10.16;100.00;96710.94;5033348;27;102579;-63
2021/12/30 11:23:10;;;;;;;1.83;1.73;;;;;;;10.32;100.00;96714.66;5029018;28;105183;-63
2021/12/30 11:25:37;;;;;;;2.20;2.00;;;;;;;10.30;100.00;96724.75;5027783;28;105053;-63